Time;durP1;ratioP1;P1;durP2;ratioP2;P2;SDS_P1;SDS_P2;PMS_P1;PMS_P2;Temp;Humidity;BMP_temperature;BMP_pressure;BME280_temperature;BME280_humidity;BME280_pressure;Samples;Min_cycle;Max_cycle;Signal;HPM_P1;HPM_P2
2022/10/13 00:03:47;;;;;;;59.42;23.77;;;;;;;10.62;100.00;100299.06;12204914;19;20029;-82
2022/10/13 00:07:53;;;;;;;74.45;25.40;;;;;;;10.60;100.00;100293.81;12224391;19;20007;-84
2022/10/13 00:11:56;;;;;;;65.47;25.10;;;;;;;10.58;100.00;100298.72;12222467;19;20392;-82
2022/10/13 00:16:01;;;;;;;67.70;25.10;;;;;;;10.56;100.00;100302.78;12200014;19;20003;-84
2022/10/13 00:20:05;;;;;;;72.82;26.10;;;;;;;10.54;100.00;100297.53;12225479;19;20006;-82
2022/10/13 00:24:10;;;;;;;69.72;24.40;;;;;;;10.53;100.00;100295.00;12224142;19;20020;-84
2022/10/13 00:28:17;;;;;;;68.97;23.73;;;;;;;10.53;100.00;100293.09;12210179;19;20010;-84
2022/10/13 00:32:19;;;;;;;74.53;25.52;;;;;;;10.54;100.00;100289.25;12229894;19;20048;-82
2022/10/13 00:36:22;;;;;;;66.80;23.70;;;;;;;10.55;100.00;100298.34;12238746;19;20022;-83
2022/10/13 00:40:24;;;;;;;68.17;22.17;;;;;;;10.55;100.00;100301.13;12205338;19;20130;-84
2022/10/13 00:45:08;;;;;;;67.22;24.13;;;;;;;10.63;100.00;100304.34;12220301;19;20081;-82
2022/10/13 00:49:13;;;;;;;70.47;24.77;;;;;;;10.79;100.00;100308.31;12192597;19;20014;-82
2022/10/13 00:53:26;;;;;;;69.57;24.77;;;;;;;10.92;100.00;100316.38;12219247;19;20007;-82
2022/10/13 00:57:27;;;;;;;76.10;24.05;;;;;;;11.07;100.00;100324.16;12219092;19;20010;-84
2022/10/13 01:01:30;;;;;;;63.83;23.95;;;;;;;11.22;100.00;100325.59;12196667;19;20018;-84
2022/10/13 01:05:32;;;;;;;60.75;21.83;;;;;;;11.34;100.00;100313.44;12223285;19;20030;-84
2022/10/13 01:09:36;;;;;;;57.33;20.05;;;;;;;11.43;100.00;100307.56;12222223;19;20101;-83
2022/10/13 01:14:05;;;;;;;51.92;19.80;;;;;;;11.51;100.00;100304.41;12194086;19;20038;-82
2022/10/13 01:18:21;;;;;;;56.97;20.23;;;;;;;11.59;100.00;100293.81;12219882;19;20034;-84
2022/10/13 01:23:01;;;;;;;54.72;20.92;;;;;;;11.63;100.00;100302.47;12190695;19;20011;-83
2022/10/13 01:27:12;;;;;;;58.65;20.60;;;;;;;11.55;100.00;100308.38;12216649;19;20022;-83
2022/10/13 01:31:23;;;;;;;60.22;21.88;;;;;;;11.34;100.00;100313.44;12191233;19;20369;-83
2022/10/13 01:36:03;;;;;;;50.70;19.65;;;;;;;11.19;100.00;100310.34;12211836;19;20015;-84
2022/10/13 01:40:22;;;;;;;45.65;19.45;;;;;;;11.06;100.00;100296.78;12194009;19;20014;-84
2022/10/13 01:44:30;;;;;;;43.10;17.92;;;;;;;10.97;100.00;100289.97;12207922;19;20082;-83
2022/10/13 01:48:33;;;;;;;53.05;20.88;;;;;;;10.91;100.00;100295.38;12210320;19;20060;-84
2022/10/13 01:52:37;;;;;;;57.80;22.50;;;;;;;10.87;100.00;100288.66;12192222;19;20017;-84
2022/10/13 01:56:39;;;;;;;54.22;21.70;;;;;;;10.83;100.00;100287.47;12222306;19;20030;-83
2022/10/13 02:00:49;;;;;;;57.90;21.77;;;;;;;10.82;100.00;100277.50;12198237;19;20006;-83
2022/10/13 02:05:16;;;;;;;57.45;24.35;;;;;;;10.84;100.00;100274.53;12219958;19;20014;-82
2022/10/13 02:09:38;;;;;;;59.90;22.73;;;;;;;10.86;100.00;100267.69;12214514;19;20444;-83
2022/10/13 02:13:46;;;;;;;64.97;23.17;;;;;;;10.87;100.00;100268.53;12183223;19;20014;-83
2022/10/13 02:17:55;;;;;;;65.00;24.60;;;;;;;10.89;100.00;100261.69;12212920;19;20025;-85
2022/10/13 02:21:57;;;;;;;66.30;25.80;;;;;;;10.89;100.00;100264.47;12188135;19;20015;-84
2022/10/13 02:25:59;;;;;;;73.50;26.10;;;;;;;10.91;100.00;100256.75;12211876;19;20011;-85
2022/10/13 02:30:01;;;;;;;71.95;26.45;;;;;;;10.92;100.00;100255.69;12214693;19;20014;-84
2022/10/13 02:34:05;;;;;;;72.22;25.58;;;;;;;10.94;100.00;100256.28;12190461;19;20014;-83
2022/10/13 02:38:06;;;;;;;69.05;25.20;;;;;;;10.98;100.00;100258.59;12213664;19;20016;-83
2022/10/13 02:42:08;;;;;;;74.47;26.55;;;;;;;11.00;100.00;100254.47;12210900;19;20014;-83
2022/10/13 02:46:10;;;;;;;66.85;26.52;;;;;;;11.00;100.00;100257.25;12187188;19;20067;-84
2022/10/13 02:50:11;;;;;;;68.82;25.90;;;;;;;11.00;100.00;100256.41;12207038;19;20006;-84
2022/10/13 02:54:13;;;;;;;65.70;26.23;;;;;;;10.97;100.00;100249.44;12211075;19;20002;-84
2022/10/13 02:58:14;;;;;;;70.78;27.00;;;;;;;10.94;100.00;100255.44;12197278;19;20010;-84
2022/10/13 03:02:16;;;;;;;58.97;24.63;;;;;;;10.88;100.00;100251.72;12221721;19;20003;-84
2022/10/13 03:06:19;;;;;;;65.22;23.75;;;;;;;10.83;100.00;100248.03;12220107;19;20435;-85
2022/10/13 03:10:21;;;;;;;72.35;26.45;;;;;;;10.76;100.00;100261.94;12201148;19;20010;-84
2022/10/13 03:14:25;;;;;;;67.50;26.17;;;;;;;10.69;100.00;100256.53;12215526;19;20006;-85
2022/10/13 03:18:27;;;;;;;80.55;28.92;;;;;;;10.72;100.00;100263.50;12223779;19;20026;-85
2022/10/13 03:22:31;;;;;;;75.95;26.75;;;;;;;10.77;100.00;100263.63;12197866;19;20404;-84
2022/10/13 03:26:33;;;;;;;74.93;26.15;;;;;;;10.81;100.00;100252.94;12218259;19;20010;-83
2022/10/13 03:30:35;;;;;;;71.03;25.02;;;;;;;10.81;100.00;100262.06;12220014;19;20085;-83
2022/10/13 03:34:37;;;;;;;67.65;24.20;;;;;;;10.80;100.00;100252.13;12237485;19;20014;-81
2022/10/13 03:38:39;;;;;;;62.05;25.63;;;;;;;10.80;100.00;100251.28;12264175;19;20010;-85
2022/10/13 03:42:41;;;;;;;65.45;25.13;;;;;;;10.79;100.00;100241.31;12205736;19;20472;-85
2022/10/13 03:46:43;;;;;;;60.67;24.88;;;;;;;10.79;100.00;100247.66;12226662;19;20489;-84
2022/10/13 03:50:45;;;;;;;63.70;24.45;;;;;;;10.77;100.00;100241.56;12222833;19;20170;-85
2022/10/13 03:54:47;;;;;;;61.75;24.05;;;;;;;10.78;100.00;100242.41;12198665;19;20011;-85
2022/10/13 03:58:53;;;;;;;60.00;24.17;;;;;;;10.76;100.00;100250.06;12220123;19;20030;-83
2022/10/13 04:02:56;;;;;;;54.25;23.50;;;;;;;10.73;100.00;100260.50;12219084;19;20019;-84
2022/10/13 04:06:58;;;;;;;70.45;25.33;;;;;;;10.78;100.00;100264.47;12196316;19;20012;-85
2022/10/13 04:11:01;;;;;;;59.78;24.73;;;;;;;10.79;100.00;100257.88;12218533;19;20014;-84
2022/10/13 04:15:03;;;;;;;55.83;22.30;;;;;;;10.83;100.00;100264.59;12217980;19;20018;-85
2022/10/13 04:19:06;;;;;;;60.60;23.13;;;;;;;10.83;100.00;100251.63;12194367;19;20116;-84
2022/10/13 04:23:07;;;;;;;53.80;22.80;;;;;;;10.87;100.00;100252.81;12215298;19;20464;-84
2022/10/13 04:27:15;;;;;;;56.00;23.27;;;;;;;10.86;100.00;100262.19;12232678;19;20310;-85
2022/10/13 04:31:18;;;;;;;66.13;24.80;;;;;;;10.89;100.00;100261.69;12197657;19;20038;-83
2022/10/13 04:35:20;;;;;;;;;;;;;;;10.92;100.00;100261.22;12217643;19;20018;-83
2022/10/13 04:39:21;;;;;;;56.50;23.08;;;;;;;10.98;100.00;100258.59;12221221;19;19947;-85
2022/10/13 04:43:23;;;;;;;61.90;23.17;;;;;;;10.98;100.00;100253.06;12191193;19;20026;-82
2022/10/13 04:47:25;;;;;;;61.15;23.27;;;;;;;10.97;100.00;100254.13;12215553;19;20015;-83
2022/10/13 04:51:27;;;;;;;63.60;26.30;;;;;;;10.93;100.00;100245.50;12211831;19;20094;-84
2022/10/13 04:55:29;;;;;;;60.47;24.13;;;;;;;10.88;100.00;100246.22;12194483;19;20370;-83
2022/10/13 04:59:30;;;;;;;63.40;24.88;;;;;;;10.82;100.00;100243.59;12217809;19;20022;-84
2022/10/13 05:03:33;;;;;;;61.03;23.58;;;;;;;10.77;100.00;100236.06;12216939;19;20030;-84
2022/10/13 05:07:34;;;;;;;56.63;24.00;;;;;;;10.71;100.00;100234.28;12196201;19;20007;-83
2022/10/13 05:11:36;;;;;;;72.10;24.75;;;;;;;10.68;100.00;100220.97;12215383;19;20014;-83
2022/10/13 05:15:38;;;;;;;63.45;26.50;;;;;;;10.71;100.00;100226.00;12212227;19;20014;-84
2022/10/13 05:19:40;;;;;;;63.92;24.50;;;;;;;10.75;100.00;100216.16;12192719;19;20337;-84
2022/10/13 05:23:42;;;;;;;75.20;26.08;;;;;;;10.77;100.00;100219.53;12208928;19;20441;-83
2022/10/13 05:27:45;;;;;;;73.90;24.67;;;;;;;10.78;100.00;100204.66;12185783;19;20010;-82
2022/10/13 05:31:47;;;;;;;73.53;27.55;;;;;;;10.79;100.00;100200.81;12208792;19;20027;-84
2022/10/13 05:35:48;;;;;;;76.47;27.17;;;;;;;10.81;100.00;100198.66;12201217;19;20011;-85
2022/10/13 05:39:50;;;;;;;73.57;27.75;;;;;;;10.82;100.00;100196.72;12171040;19;20078;-85
2022/10/13 05:43:56;;;;;;;68.15;25.40;;;;;;;10.83;100.00;100196.50;12207175;19;20006;-84
2022/10/13 05:47:57;;;;;;;76.65;24.45;;;;;;;10.84;100.00;100195.41;12213666;19;20067;-83
2022/10/13 05:52:08;;;;;;;69.07;26.15;;;;;;;10.86;100.00;100187.75;12198353;19;20007;-86
2022/10/13 05:56:20;;;;;;;70.65;25.08;;;;;;;10.88;100.00;100180.03;12207816;19;20066;-85
2022/10/13 06:00:22;;;;;;;64.25;24.05;;;;;;;10.89;100.00;100173.47;12212386;19;20032;-85
2022/10/13 06:04:42;;;;;;;73.60;27.17;;;;;;;10.89;100.00;100167.97;12210316;19;20014;-85
2022/10/13 06:08:44;;;;;;;65.65;25.00;;;;;;;10.92;100.00;100159.19;12209922;19;20548;-86
2022/10/13 06:12:46;;;;;;;68.67;24.43;;;;;;;11.00;100.00;100146.09;12186587;19;20015;-85
2022/10/13 06:16:47;;;;;;;62.17;22.52;;;;;;;11.04;100.00;100144.56;12208617;19;20649;-86
2022/10/13 06:20:49;;;;;;;58.10;23.02;;;;;;;11.08;100.00;100154.00;12213396;19;20011;-85
2022/10/13 06:24:51;;;;;;;71.18;25.00;;;;;;;11.11;100.00;100164.53;12193728;19;20013;-87
2022/10/13 06:28:52;;;;;;;69.68;24.58;;;;;;;11.11;100.00;100181.09;12219732;19;20006;-86
2022/10/13 06:33:00;;;;;;;67.18;24.05;;;;;;;11.19;100.00;100188.97;12227851;19;20007;-86
2022/10/13 06:37:02;;;;;;;66.60;24.83;;;;;;;11.33;100.00;100195.03;12207687;19;20042;-87
2022/10/13 06:41:04;;;;;;;62.40;24.47;;;;;;;11.49;100.00;100188.75;12227580;19;20018;-86
2022/10/13 06:45:09;;;;;;;64.25;24.77;;;;;;;11.64;100.00;100190.97;12267115;19;20082;-82
2022/10/13 06:49:14;;;;;;;54.42;22.52;;;;;;;11.69;100.00;100196.59;12256379;19;19999;-83
2022/10/13 06:53:16;;;;;;;;;;;;;;;11.67;100.00;100197.91;12246477;19;20011;-86
2022/10/13 06:57:18;;;;;;;48.45;21.00;;;;;;;11.56;100.00;100205.97;12212573;19;19926;-86
2022/10/13 07:01:20;;;;;;;48.80;21.88;;;;;;;11.50;100.00;100209.72;12196216;19;20007;-86
2022/10/13 07:05:22;;;;;;;46.77;20.03;;;;;;;11.53;100.00;100192.69;12218763;19;20021;-85
2022/10/13 07:09:23;;;;;;;44.38;19.50;;;;;;;11.62;100.00;100180.16;12222001;19;20011;-86
2022/10/13 07:13:25;;;;;;;39.05;20.05;;;;;;;11.71;100.00;100196.31;12193781;19;20038;-86
2022/10/13 07:17:27;;;;;;;49.53;19.70;;;;;;;11.74;100.00;100201.34;12219165;19;20027;-86
2022/10/13 07:21:30;;;;;;;50.30;19.98;;;;;;;11.71;100.00;100210.94;12213399;19;20015;-86
2022/10/13 07:25:32;;;;;;;54.03;18.30;;;;;;;11.67;100.00;100208.94;12198003;19;20011;-86
2022/10/13 07:29:34;;;;;;;38.50;17.10;;;;;;;11.70;100.00;100209.28;12217560;19;20287;-86
2022/10/13 07:33:35;;;;;;;192.15;26.77;;;;;;;11.70;100.00;100201.00;12218121;19;20015;-85
2022/10/13 07:37:37;;;;;;;120.82;19.33;;;;;;;11.76;100.00;100216.56;12202358;19;20076;-84
2022/10/13 07:41:40;;;;;;;30.00;15.30;;;;;;;11.78;100.00;100208.06;12220850;19;20014;-83
2022/10/13 07:45:41;;;;;;;27.63;14.37;;;;;;;11.82;100.00;100212.00;12206275;19;20007;-85
2022/10/13 07:49:43;;;;;;;32.28;16.52;;;;;;;11.86;100.00;100202.97;12221456;19;20023;-86
2022/10/13 07:53:45;;;;;;;41.45;17.10;;;;;;;11.83;100.00;100205.38;12216896;19;20003;-85
2022/10/13 07:57:47;;;;;;;28.53;14.83;;;;;;;11.82;100.00;100198.19;12193734;19;20389;-86
2022/10/13 08:01:48;;;;;;;99.10;21.38;;;;;;;11.92;100.00;100180.97;12214873;19;20011;-84
2022/10/13 08:05:50;;;;;;;33.35;15.80;;;;;;;12.08;100.00;100182.94;12218339;19;20100;-86
2022/10/13 08:09:59;;;;;;;35.20;17.15;;;;;;;12.25;100.00;100192.03;12198648;19;20004;-83
2022/10/13 08:14:01;;;;;;;37.47;17.85;;;;;;;12.31;100.00;100199.34;12215231;19;20149;-84
2022/10/13 08:18:05;;;;;;;32.03;17.13;;;;;;;12.42;100.00;100196.72;12222633;19;20010;-85
2022/10/13 08:22:09;;;;;;;31.83;17.65;;;;;;;12.56;100.00;100188.94;12182614;19;20417;-85
2022/10/13 08:26:32;;;;;;;36.20;17.52;;;;;;;12.67;100.00;100207.31;12220264;19;20011;-87
2022/10/13 08:31:05;;;;;;;32.15;17.23;;;;;;;12.80;100.00;100187.63;12196415;19;20021;-86
2022/10/13 08:35:09;;;;;;;39.75;18.55;;;;;;;12.95;100.00;100189.75;12220036;19;20135;-85
2022/10/13 08:39:11;;;;;;;38.88;17.95;;;;;;;13.06;100.00;100183.28;12226593;19;20003;-86
2022/10/13 08:43:17;;;;;;;29.58;16.73;;;;;;;13.30;100.00;100192.16;12236261;19;20036;-82
2022/10/13 08:47:45;;;;;;;33.67;17.02;;;;;;;13.55;100.00;100177.75;12267710;19;20014;-86
2022/10/13 08:51:47;;;;;;;32.95;16.63;;;;;;;13.77;100.00;100183.28;12193523;19;20020;-85
2022/10/13 08:56:13;;;;;;;32.70;18.20;;;;;;;13.81;100.00;100189.94;12213204;19;19999;-85
2022/10/13 09:00:22;;;;;;;34.78;19.20;;;;;;;13.67;100.00;100197.00;12209137;19;20023;-86
2022/10/13 09:04:35;;;;;;;34.10;18.33;;;;;;;13.59;100.00;100192.78;12194073;19;20035;-82
2022/10/13 09:08:44;;;;;;;32.38;18.13;;;;;;;13.60;100.00;100180.59;12228322;19;20329;-80
2022/10/13 09:12:45;;;;;;;36.90;20.20;;;;;;;13.69;100.00;100172.66;12206163;19;20018;-81
2022/10/13 09:16:48;;;;;;;37.90;19.65;;;;;;;13.72;100.00;100182.38;12227906;19;20014;-80
2022/10/13 09:20:50;;;;;;;39.03;19.23;;;;;;;13.65;100.00;100191.75;12229470;19;20010;-80
2022/10/13 09:25:21;;;;;;;35.58;19.02;;;;;;;13.52;100.00;100197.66;12202241;19;20034;-78
2022/10/13 09:29:25;;;;;;;37.53;18.38;;;;;;;13.45;100.00;100200.66;12211411;19;20014;-78
2022/10/13 09:33:27;;;;;;;36.22;19.20;;;;;;;13.45;100.00;100199.81;12209993;19;20014;-78
2022/10/13 09:37:29;;;;;;;35.92;19.33;;;;;;;13.42;100.00;100209.47;12188067;19;20014;-78
2022/10/13 09:41:34;;;;;;;36.78;18.92;;;;;;;13.40;100.00;100202.50;12210425;19;20006;-78
2022/10/13 09:45:41;;;;;;;38.95;20.85;;;;;;;13.44;100.00;100190.69;12213390;19;20016;-78
2022/10/13 09:49:43;;;;;;;41.03;21.52;;;;;;;13.52;100.00;100188.53;12188608;19;20015;-78
2022/10/13 09:53:46;;;;;;;39.15;20.60;;;;;;;13.60;100.00;100180.59;12206184;19;20487;-77
2022/10/13 09:57:50;;;;;;;40.00;20.75;;;;;;;13.62;100.00;100177.56;12186056;19;20440;-78
2022/10/13 10:01:54;;;;;;;38.58;19.98;;;;;;;13.64;100.00;100187.28;12204294;19;20493;-77
2022/10/13 10:06:06;;;;;;;38.67;21.13;;;;;;;13.50;100.00;100186.00;12222431;19;20038;-79
2022/10/13 10:10:33;;;;;;;42.90;22.85;;;;;;;13.39;100.00;100196.16;12197967;19;20035;-79
2022/10/13 10:14:37;;;;;;;37.00;21.15;;;;;;;13.45;100.00;100195.09;12224318;19;20007;-79
2022/10/13 10:19:01;;;;;;;47.15;21.90;;;;;;;13.56;100.00;100196.03;12237091;19;20015;-82
2022/10/13 10:23:15;;;;;;;43.60;22.48;;;;;;;13.72;100.00;100197.06;12202233;19;20007;-82
2022/10/13 10:27:25;;;;;;;49.03;23.38;;;;;;;13.78;100.00;100204.31;12225066;19;20014;-82
2022/10/13 10:31:45;;;;;;;47.45;24.95;;;;;;;13.78;100.00;100198.78;12194292;19;20003;-80
2022/10/13 10:36:01;;;;;;;46.90;22.65;;;;;;;13.72;100.00;100197.06;12222948;19;20014;-82
2022/10/13 10:40:10;;;;;;;49.45;24.02;;;;;;;13.70;100.00;100196.47;12202635;19;20358;-83
2022/10/13 10:44:22;;;;;;;51.63;23.85;;;;;;;13.71;100.00;100205.63;12220851;19;20034;-82
2022/10/13 10:48:37;;;;;;;51.30;23.55;;;;;;;13.72;100.00;100176.84;12216600;19;20018;-83
2022/10/13 10:53:33;;;;;;;44.67;23.33;;;;;;;13.90;100.00;100162.59;12191959;19;20109;-81
2022/10/13 10:58:05;;;;;;;46.67;23.90;;;;;;;14.23;100.00;100152.34;12213249;19;20027;-82
2022/10/13 11:02:07;;;;;;;45.85;23.33;;;;;;;14.36;100.00;100143.56;12188083;19;20006;-83
2022/10/13 11:06:50;;;;;;;43.72;22.83;;;;;;;14.46;100.00;100107.59;12218067;19;20028;-82
2022/10/13 11:11:43;;;;;;;43.13;21.90;;;;;;;14.66;100.00;100081.91;12139860;19;20018;-84
2022/10/13 11:15:48;;;;;;;42.33;21.20;;;;;;;14.87;100.00;100087.56;12206369;19;20038;-82
2022/10/13 11:19:52;;;;;;;40.15;22.08;;;;;;;15.13;100.00;100074.63;12214198;19;20021;-83
2022/10/13 11:23:57;;;;;;;38.42;20.85;;;;;;;15.43;100.00;100071.06;12214281;19;20018;-80
2022/10/13 11:28:25;;;;;;;42.95;21.45;;;;;;;15.55;100.00;100070.78;12194496;19;20026;-81
2022/10/13 11:32:40;;;;;;;39.20;21.35;;;;;;;15.66;100.00;100055.81;12217440;19;20046;-81
2022/10/13 11:36:47;;;;;;;34.08;18.23;;;;;;;15.81;100.00;100041.94;12200318;19;20010;-82
2022/10/13 11:41:03;;;;;;;34.00;18.35;;;;;;;16.01;100.00;100043.03;12218157;19;20015;-83
2022/10/13 11:45:35;;;;;;;34.38;17.98;;;;;;;16.27;100.00;100047.44;12217501;19;20388;-79
2022/10/13 11:49:44;;;;;;;26.15;15.80;;;;;;;16.47;100.00;100046.53;12197279;19;20102;-83
2022/10/13 11:54:12;;;;;;;28.10;16.05;;;;;;;16.75;100.00;100045.03;12212291;19;20534;-83
2022/10/13 11:58:21;;;;;;;27.27;16.00;;;;;;;16.98;100.00;100045.50;12192231;19;20018;-82
2022/10/13 12:02:25;;;;;;;27.27;15.70;;;;;;;17.12;100.00;100035.41;12210013;19;20039;-80
2022/10/13 12:06:33;;;;;;;24.25;14.68;;;;;;;17.24;100.00;100029.47;12216981;19;20680;-82
2022/10/13 12:10:36;;;;;;;27.42;14.98;;;;;;;17.50;100.00;100021.78;12192820;19;19998;-82
2022/10/13 12:14:54;;;;;;;26.67;14.27;;;;;;;17.64;100.00;100022.78;12215613;19;20019;-82
2022/10/13 12:19:17;;;;;;;25.08;13.55;;;;;;;17.74;100.00;100031.03;12199725;19;20034;-81
2022/10/13 12:23:19;;;;;;;21.23;13.40;;;;;;;17.82;100.00;100028.75;12217065;19;20092;-82
2022/10/13 12:27:22;;;;;;;22.90;13.60;;;;;;;17.89;100.00;100023.69;12214713;19;20112;-81
2022/10/13 12:31:36;;;;;;;23.90;13.52;;;;;;;17.88;100.00;100028.44;12192217;19;20102;-81
2022/10/13 12:35:38;;;;;;;29.42;14.35;;;;;;;17.75;100.00;100038.25;12210376;19;20034;-81
2022/10/13 12:39:40;;;;;;;28.30;15.57;;;;;;;17.63;100.00;100037.00;12208337;19;20026;-81
2022/10/13 12:43:43;;;;;;;31.63;15.87;;;;;;;17.43;100.00;100043.53;12190007;19;20010;-82
2022/10/13 12:47:48;;;;;;;25.55;14.90;;;;;;;17.37;100.00;100033.56;12219784;19;20011;-79
2022/10/13 12:51:57;;;;;;;28.10;14.40;;;;;;;17.32;100.00;100028.88;12195794;19;20014;-82
2022/10/13 12:56:02;;;;;;;20.58;13.05;;;;;;;17.56;100.00;100017.81;12216639;19;20022;-81
2022/10/13 13:00:21;;;;;;;28.45;14.60;;;;;;;17.84;100.00;99999.47;12209091;19;20027;-82
2022/10/13 13:04:28;;;;;;;26.75;14.43;;;;;;;17.82;100.00;100009.25;12186724;19;20014;-81
2022/10/13 13:08:32;;;;;;;28.25;15.23;;;;;;;17.72;100.00;100007.38;12215564;19;20043;-82
2022/10/13 13:12:35;;;;;;;29.08;15.45;;;;;;;17.46;100.00;100007.59;12208993;19;20034;-83
2022/10/13 13:16:40;;;;;;;31.17;17.15;;;;;;;17.22;100.00;100003.88;12190710;19;20540;-84
2022/10/13 13:20:42;;;;;;;29.23;15.83;;;;;;;17.13;100.00;99977.75;12211667;19;20016;-82
2022/10/13 13:24:45;;;;;;;29.20;16.08;;;;;;;16.97;100.00;99979.81;12191960;19;20028;-82
2022/10/13 13:28:48;;;;;;;33.53;17.70;;;;;;;16.92;100.00;99983.47;12211636;19;20023;-84
2022/10/13 13:32:50;;;;;;;26.65;16.92;;;;;;;16.87;100.00;99983.50;12211471;19;20015;-85
2022/10/13 13:36:56;;;;;;;26.00;16.02;;;;;;;16.88;100.00;99984.34;12191685;19;20023;-85
2022/10/13 13:41:00;;;;;;;25.83;16.05;;;;;;;17.02;100.00;99988.97;12212489;19;20477;-86
2022/10/13 13:45:04;;;;;;;28.13;16.60;;;;;;;16.95;100.00;99984.84;12212476;19;20023;-85
2022/10/13 13:49:10;;;;;;;29.40;16.02;;;;;;;16.98;100.00;99987.88;12193352;19;20019;-84
2022/10/13 13:53:12;;;;;;;;;;;;;;;16.99;100.00;99978.41;12264858;19;20031;-80
2022/10/13 13:57:14;;;;;;;22.25;14.32;;;;;;;16.99;100.00;99961.72;12243305;19;19915;-84
2022/10/13 14:01:16;;;;;;;30.30;15.15;;;;;;;17.00;100.00;99965.31;12183180;19;20011;-85
2022/10/13 14:05:17;;;;;;;26.83;15.77;;;;;;;16.97;100.00;99968.69;12200044;19;20353;-85
2022/10/13 14:09:19;;;;;;;30.17;16.65;;;;;;;16.89;100.00;99977.63;12206719;19;20672;-86
2022/10/13 14:13:21;;;;;;;26.77;16.15;;;;;;;16.93;100.00;99981.53;12201670;19;20884;-80
2022/10/13 14:17:23;;;;;;;32.10;19.42;;;;;;;16.90;100.00;99971.81;12262922;19;20003;-82
2022/10/13 14:21:31;;;;;;;;;;;;;;;16.87;100.00;99971.56;12260162;19;20014;-81
2022/10/13 14:25:37;;;;;;;33.35;16.77;;;;;;;16.99;100.00;99958.09;12195165;19;20454;-86
2022/10/13 14:29:38;;;;;;;26.40;17.27;;;;;;;17.08;100.00;99964.72;12215548;19;20038;-86
2022/10/13 14:33:40;;;;;;;28.70;17.03;;;;;;;17.25;100.00;99954.00;12214334;19;20388;-85
2022/10/13 14:37:42;;;;;;;29.42;16.83;;;;;;;17.39;100.00;99953.34;12194590;19;20113;-85
2022/10/13 14:41:44;;;;;;;31.15;16.73;;;;;;;17.41;100.00;99949.13;12212750;19;20035;-86
2022/10/13 14:45:45;;;;;;;30.63;18.33;;;;;;;17.30;100.00;99950.34;12192581;19;20007;-85
2022/10/13 14:49:47;;;;;;;25.65;16.67;;;;;;;17.19;100.00;99949.59;12219473;19;20018;-86
2022/10/13 14:53:49;;;;;;;29.83;16.58;;;;;;;17.14;100.00;99951.59;12227478;19;20018;-83
2022/10/13 14:57:51;;;;;;;29.07;15.73;;;;;;;17.09;100.00;99944.09;12210773;19;20006;-85
2022/10/13 15:01:53;;;;;;;28.50;17.75;;;;;;;16.94;100.00;99953.38;12229416;19;20267;-85
2022/10/13 15:05:58;;;;;;;28.88;18.52;;;;;;;16.89;100.00;99964.56;12225007;19;20018;-84
2022/10/13 15:10:02;;;;;;;28.30;17.80;;;;;;;16.75;100.00;99969.91;12205776;19;20023;-86
2022/10/13 15:14:08;;;;;;;27.08;16.15;;;;;;;16.66;100.00;99966.06;12220616;19;20007;-84
2022/10/13 15:18:14;;;;;;;32.75;17.98;;;;;;;16.61;100.00;99964.13;12221978;19;20014;-84
2022/10/13 15:22:15;;;;;;;32.22;18.35;;;;;;;16.53;100.00;99958.31;12196593;19;20022;-85
2022/10/13 15:26:18;;;;;;;29.25;17.95;;;;;;;16.52;100.00;99949.16;12222276;19;20018;-84
2022/10/13 15:30:20;;;;;;;29.25;18.08;;;;;;;16.52;100.00;99949.16;12217437;19;20002;-84
2022/10/13 15:34:22;;;;;;;29.30;17.60;;;;;;;16.52;100.00;99953.91;12194932;19;20017;-83
2022/10/13 15:38:24;;;;;;;28.88;18.58;;;;;;;16.45;100.00;99950.56;12227165;19;20022;-84
2022/10/13 15:42:26;;;;;;;32.07;18.83;;;;;;;16.40;100.00;99943.94;12217921;19;20555;-84
2022/10/13 15:46:30;;;;;;;29.75;18.35;;;;;;;16.35;100.00;99945.91;12189916;19;20085;-84
2022/10/13 15:50:32;;;;;;;35.75;18.90;;;;;;;16.21;100.00;99953.19;12217606;19;20073;-84
2022/10/13 15:54:34;;;;;;;34.47;19.20;;;;;;;16.12;100.00;99953.78;12219469;19;20038;-84
2022/10/13 15:58:36;;;;;;;29.80;19.58;;;;;;;15.95;100.00;99958.84;12196034;19;20007;-84
2022/10/13 16:02:42;;;;;;;20.83;13.13;;;;;;;15.87;100.00;99957.44;12217332;19;20035;-84
2022/10/13 16:06:44;;;;;;;35.25;21.10;;;;;;;15.77;100.00;99968.59;12197716;19;20789;-84
2022/10/13 16:10:46;;;;;;;38.53;20.63;;;;;;;15.67;100.00;99961.09;12218596;19;20026;-83
2022/10/13 16:14:47;;;;;;;37.97;21.35;;;;;;;15.55;100.00;99949.41;12218054;19;20003;-82
2022/10/13 16:18:50;;;;;;;41.08;21.77;;;;;;;15.44;100.00;99961.66;12195474;19;20014;-83
2022/10/13 16:22:52;;;;;;;45.63;21.75;;;;;;;15.34;100.00;99956.94;12218849;19;20118;-83
2022/10/13 16:26:54;;;;;;;40.03;21.50;;;;;;;15.25;100.00;99947.50;12219206;19;20014;-84
2022/10/13 16:31:11;;;;;;;38.80;22.38;;;;;;;15.18;100.00;99952.50;12197627;19;20027;-81
2022/10/13 16:35:15;;;;;;;40.88;22.77;;;;;;;15.08;100.00;99944.16;12218190;19;20083;-81
2022/10/13 16:39:17;;;;;;;43.47;23.73;;;;;;;15.00;100.00;99943.59;12221160;19;20368;-81
2022/10/13 16:43:19;;;;;;;46.90;25.17;;;;;;;14.93;100.00;99940.28;12197584;19;20523;-82
2022/10/13 16:47:27;;;;;;;44.92;24.48;;;;;;;14.87;100.00;99940.53;12220441;19;20027;-81
2022/10/13 16:51:28;;;;;;;47.75;25.50;;;;;;;14.82;100.00;99949.69;12217078;19;20006;-82
2022/10/13 16:55:30;;;;;;;55.58;32.33;;;;;;;14.79;100.00;99947.47;12195269;19;20010;-81
2022/10/13 16:59:32;;;;;;;67.60;37.78;;;;;;;14.73;100.00;99954.94;12215088;19;20003;-81
2022/10/13 17:03:43;;;;;;;56.28;31.60;;;;;;;14.70;100.00;99952.72;12216216;19;20471;-82
2022/10/13 17:08:40;;;;;;;;;;;;;;;;;;;;;
2022/10/13 17:19:26;;;;;;;53.33;27.48;;;;;;;14.60;100.00;99944.34;12195858;19;20382;-83
2022/10/13 17:24:03;;;;;;;46.85;25.63;;;;;;;14.53;100.00;99944.59;12002746;19;2004430;-83
2022/10/13 17:28:13;;;;;;;56.38;26.80;;;;;;;14.49;100.00;99940.69;12183204;19;20010;-83
2022/10/13 17:32:21;;;;;;;63.80;30.70;;;;;;;14.49;100.00;99940.69;12210313;19;20024;-83
2022/10/13 17:36:32;;;;;;;50.13;26.15;;;;;;;14.49;100.00;99949.00;12212941;19;20363;-83
2022/10/13 17:40:41;;;;;;;51.63;27.33;;;;;;;14.49;100.00;99939.88;12191444;19;20230;-83
2022/10/13 17:44:43;;;;;;;51.38;25.95;;;;;;;14.45;100.00;99953.41;12210922;19;20015;-83
2022/10/13 17:48:45;;;;;;;55.65;28.35;;;;;;;14.44;100.00;99950.94;12215468;19;20375;-83
2022/10/13 17:52:47;;;;;;;61.75;28.65;;;;;;;14.41;100.00;99944.00;12194646;19;20085;-86
2022/10/13 17:56:49;;;;;;;57.83;29.47;;;;;;;14.41;100.00;99946.75;12216238;19;20034;-85
2022/10/13 18:00:51;;;;;;;42.72;19.45;;;;;;;14.38;100.00;99939.00;12188372;19;20273;-83
2022/10/13 18:05:13;;;;;;;61.95;26.38;;;;;;;14.38;100.00;99941.75;12215937;19;20434;-85
2022/10/13 18:09:23;;;;;;;59.80;26.00;;;;;;;14.36;100.00;99941.19;12211688;19;20023;-84
2022/10/13 18:13:25;;;;;;;52.50;26.20;;;;;;;14.36;100.00;99938.41;12187450;19;20003;-84
2022/10/13 18:17:26;;;;;;;55.45;28.48;;;;;;;14.35;100.00;99943.13;12216810;19;20122;-85
2022/10/13 18:21:28;;;;;;;61.58;28.25;;;;;;;14.36;100.00;99939.25;12226337;19;20007;-84
2022/10/13 18:25:33;;;;;;;58.33;27.15;;;;;;;14.35;100.00;99939.53;12203862;19;20333;-84
2022/10/13 18:29:35;;;;;;;56.97;28.52;;;;;;;14.36;100.00;99938.41;12226112;19;20007;-84
2022/10/13 18:33:37;;;;;;;64.95;28.23;;;;;;;14.36;100.00;99947.56;12225459;19;20373;-84